Colfax, Washington
Current Conditions -  °F | °C
As of 1:53 AM on Thursday 23 Oct 2014 (Local Time) from KPUW Reporting Station
Overcast Overcast  
Wind Chill: 51°   Ceiling: 6000
Heat Index: 51°   Visibility: 10mi
Dew Point: 45°   Wind: 9mph
Humidity: 80%   Direction: 110°ESE
Pressure: 29.83"   Gusts: NA
Location:  46.88°N, 117.36°W
Report Text: KPUW 230853Z AUTO 11008KT 10SM OVC060 11/07 A2983 RMK AO2 RAE01 SLP100 P0000 60002 T01060072 55003
Loading
Personal Weather Stations






























Interactive Weather Map
Tropical Storm Tracking
New forecast layout! Learn more

10-Day Weather Forecast

Advertisements
Track Severe Weather on mobile